createdAt,value
2019-05-30T00:01:21.186Z,96.20
2019-05-30T00:03:51.569Z,96.60
2019-05-30T00:06:21.933Z,96.50
2019-05-30T00:08:52.307Z,96.50
2019-05-30T00:11:22.684Z,96.60
2019-05-30T00:13:52.995Z,96.70
2019-05-30T00:16:23.350Z,97.00
2019-05-30T00:18:54.644Z,97.00
2019-05-30T00:21:25.043Z,97.40
2019-05-30T00:23:55.803Z,97.50
2019-05-30T00:26:26.263Z,97.40
2019-05-30T00:28:56.609Z,97.40
2019-05-30T00:31:26.927Z,97.60
2019-05-30T00:33:57.512Z,97.70
2019-05-30T00:36:27.864Z,97.80
2019-05-30T00:38:58.311Z,98.30
2019-05-30T00:41:28.631Z,98.20
2019-05-30T00:43:59.921Z,98.70
2019-05-30T00:46:30.382Z,98.60
2019-05-30T00:49:00.743Z,98.70
2019-05-30T00:51:31.130Z,98.80
2019-05-30T00:54:02.802Z,98.90
2019-05-30T00:56:34.287Z,99.20
2019-05-30T00:59:04.897Z,98.80
2019-05-30T01:01:36.351Z,98.90
2019-05-30T01:04:07.102Z,99.30
2019-05-30T01:06:37.606Z,99.10
2019-05-30T01:09:08.001Z,99.50
2019-05-30T01:11:38.328Z,99.70
2019-05-30T01:14:08.674Z,99.50
2019-05-30T01:16:42.306Z,99.90
2019-05-30T01:19:11.100Z,99.90
2019-05-30T01:21:41.408Z,99.90
2019-05-30T01:24:11.749Z,99.90
2019-05-30T01:26:42.077Z,99.90
2019-05-30T01:29:12.452Z,99.90
2019-05-30T01:31:42.759Z,99.90
2019-05-30T01:34:13.111Z,99.90
2019-05-30T01:36:43.479Z,99.90
2019-05-30T01:39:13.821Z,99.90
2019-05-30T01:41:44.206Z,99.90
2019-05-30T01:44:14.559Z,99.90
2019-05-30T01:46:44.861Z,99.90
2019-05-30T01:49:15.206Z,99.90
2019-05-30T01:51:45.523Z,99.90
2019-05-30T01:54:15.900Z,99.80
2019-05-30T01:56:46.186Z,99.90
2019-05-30T01:59:16.524Z,99.90
2019-05-30T02:01:46.855Z,99.90
2019-05-30T02:04:17.223Z,99.90
2019-05-30T02:06:47.540Z,99.90
2019-05-30T02:09:17.889Z,99.90
2019-05-30T02:11:48.200Z,99.90
2019-05-30T02:14:18.539Z,99.90
2019-05-30T02:16:48.965Z,99.90
2019-05-30T02:19:19.353Z,99.90
2019-05-30T02:21:49.659Z,99.90
2019-05-30T02:24:20.112Z,99.90
2019-05-30T02:26:50.482Z,99.90
2019-05-30T02:29:20.815Z,99.90
2019-05-30T02:31:51.115Z,99.90
2019-05-30T02:34:21.447Z,99.90
2019-05-30T02:36:51.760Z,99.90
2019-05-30T02:39:22.112Z,99.90
2019-05-30T02:41:52.425Z,99.90
2019-05-30T02:44:22.754Z,99.90
2019-05-30T02:46:58.031Z,99.90
2019-05-30T02:49:28.391Z,99.90
2019-05-30T02:51:58.688Z,99.90
2019-05-30T02:54:29.052Z,99.90
2019-05-30T02:56:59.347Z,99.90
2019-05-30T02:59:29.685Z,99.90
2019-05-30T03:02:04.374Z,99.90
2019-05-30T03:04:31.954Z,99.90
2019-05-30T03:07:04.085Z,99.90
2019-05-30T03:09:34.662Z,99.90
2019-05-30T03:12:06.977Z,99.90
2019-05-30T03:14:37.013Z,99.90
2019-05-30T03:17:11.407Z,99.90
2019-05-30T03:19:39.370Z,99.90
2019-05-30T03:22:12.242Z,99.90
2019-05-30T03:24:53.613Z,99.90
2019-05-30T03:27:23.988Z,99.90
2019-05-30T03:29:54.329Z,99.90
2019-05-30T03:33:02.603Z,99.90
2019-05-30T03:34:57.463Z,99.90
2019-05-30T03:37:30.319Z,99.90
2019-05-30T03:39:59.996Z,99.90
2019-05-30T03:42:30.308Z,99.90
2019-05-30T03:45:00.658Z,99.90
2019-05-30T03:47:33.209Z,99.90
2019-05-30T03:50:06.808Z,99.90
2019-05-30T03:52:37.620Z,99.90
2019-05-30T03:55:10.025Z,99.90
2019-05-30T03:57:45.602Z,99.90
2019-05-30T04:00:30.934Z,99.90
2019-05-30T04:03:11.639Z,99.90
2019-05-30T04:05:45.116Z,99.90
2019-05-30T04:08:17.359Z,99.90
2019-05-30T04:10:51.146Z,99.90
2019-05-30T04:13:42.224Z,99.90
2019-05-30T04:16:13.514Z,99.90
2019-05-30T04:18:44.538Z,99.90
2019-05-30T04:21:18.164Z,99.90
2019-05-30T04:23:46.804Z,99.90
2019-05-30T04:26:18.099Z,99.90
2019-05-30T04:28:48.776Z,99.90
2019-05-30T04:31:19.506Z,99.90
2019-05-30T04:33:50.032Z,99.90
2019-05-30T04:36:20.883Z,99.90
2019-05-30T04:38:51.193Z,99.90
2019-05-30T04:41:21.533Z,99.90
2019-05-30T04:43:51.896Z,99.90
2019-05-30T04:46:22.303Z,99.90
2019-05-30T04:48:52.638Z,99.90
2019-05-30T04:51:22.979Z,99.90
2019-05-30T04:53:53.290Z,99.90
2019-05-30T04:56:23.636Z,99.90
2019-05-30T04:58:53.944Z,99.90
2019-05-30T05:01:24.284Z,99.90
2019-05-30T05:03:54.592Z,99.90
2019-05-30T05:06:24.962Z,99.90
2019-05-30T05:08:55.284Z,99.90
2019-05-30T05:11:25.633Z,99.90
2019-05-30T05:13:55.916Z,99.90
2019-05-30T05:16:35.604Z,99.90
2019-05-30T05:18:58.890Z,99.90
2019-05-30T05:21:29.238Z,99.90
2019-05-30T05:23:59.551Z,99.90
2019-05-30T05:26:29.906Z,99.90
2019-05-30T05:29:00.266Z,99.90
2019-05-30T05:31:30.621Z,99.90
2019-05-30T05:34:00.957Z,99.90
2019-05-30T05:36:31.277Z,99.90
2019-05-30T05:39:01.637Z,99.90
2019-05-30T05:41:33.047Z,99.90
2019-05-30T05:44:03.348Z,99.90
2019-05-30T05:46:33.686Z,99.90
2019-05-30T05:49:03.989Z,99.90
2019-05-30T05:51:34.326Z,99.80
2019-05-30T05:54:04.674Z,99.40
2019-05-30T05:56:35.005Z,99.00
2019-05-30T05:59:05.308Z,98.50
2019-05-30T06:01:36.689Z,98.00
2019-05-30T06:04:13.245Z,97.80
2019-05-30T06:06:38.972Z,97.30
2019-05-30T06:09:09.276Z,97.10
2019-05-30T06:11:39.655Z,96.90
2019-05-30T06:14:09.964Z,96.80
2019-05-30T06:16:40.269Z,96.60
2019-05-30T06:19:10.579Z,96.50
2019-05-30T06:21:53.109Z,96.30
2019-05-30T06:24:12.869Z,95.90
2019-05-30T06:26:43.258Z,95.70
2019-05-30T06:29:13.616Z,95.40
2019-05-30T06:31:43.966Z,95.10
2019-05-30T06:34:28.389Z,95.00
2019-05-30T06:36:46.257Z,94.90
2019-05-30T06:39:16.589Z,94.80
2019-05-30T06:41:46.942Z,94.40
2019-05-30T06:44:17.259Z,93.90
2019-05-30T06:46:47.596Z,93.90
2019-05-30T06:49:17.911Z,93.90
2019-05-30T06:51:48.244Z,93.70
2019-05-30T06:54:21.817Z,93.50
2019-05-30T06:56:53.187Z,93.50
2019-05-30T06:59:23.512Z,93.20
2019-05-30T07:01:53.844Z,93.10
2019-05-30T07:04:25.497Z,92.80
2019-05-30T07:06:56.267Z,92.60
2019-05-30T07:09:26.861Z,92.50
2019-05-30T07:11:57.291Z,92.00
2019-05-30T07:14:29.321Z,91.80
2019-05-30T07:16:59.695Z,91.60
2019-05-30T07:19:30.021Z,91.50
2019-05-30T07:22:01.771Z,91.50
2019-05-30T07:24:32.071Z,91.10
2019-05-30T07:27:02.441Z,91.10
2019-05-30T07:29:34.136Z,90.50
2019-05-30T07:32:04.703Z,90.10
2019-05-30T07:34:35.464Z,90.00
2019-05-30T07:37:05.836Z,89.40
2019-05-30T07:39:37.648Z,88.90
2019-05-30T07:42:08.165Z,88.80
2019-05-30T07:44:38.522Z,87.90
2019-05-30T07:47:08.840Z,87.30
2019-05-30T07:49:39.179Z,87.40
2019-05-30T07:52:09.475Z,86.70
2019-05-30T07:54:39.812Z,85.80
2019-05-30T07:57:10.212Z,85.20
2019-05-30T07:59:41.619Z,85.60
2019-05-30T08:02:12.052Z,85.00
2019-05-30T08:04:42.394Z,84.20
2019-05-30T08:07:12.702Z,83.20
2019-05-30T08:09:43.049Z,82.80
2019-05-30T08:12:13.343Z,81.60
2019-05-30T08:14:43.659Z,80.40
2019-05-30T08:17:13.974Z,79.50
2019-05-30T08:19:44.318Z,79.70
2019-05-30T08:22:14.665Z,80.20
2019-05-30T08:24:44.960Z,80.40
2019-05-30T08:27:15.287Z,79.60
2019-05-30T08:29:45.664Z,79.00
2019-05-30T08:32:16.088Z,78.70
2019-05-30T08:34:46.431Z,78.60
2019-05-30T08:37:16.739Z,78.50
2019-05-30T08:39:47.068Z,78.20
2019-05-30T08:42:21.243Z,77.80
2019-05-30T08:44:51.616Z,76.60
2019-05-30T08:47:21.946Z,76.20
2019-05-30T08:49:52.270Z,74.80
2019-05-30T08:52:22.587Z,74.90
2019-05-30T08:54:52.922Z,75.70
2019-05-30T08:57:23.252Z,74.70
2019-05-30T08:59:54.847Z,73.90
2019-05-30T09:02:25.229Z,71.50
2019-05-30T09:04:55.602Z,71.40
2019-05-30T09:07:25.905Z,69.00
2019-05-30T09:09:56.424Z,67.50
2019-05-30T09:12:26.745Z,66.60
2019-05-30T09:14:57.082Z,65.70
2019-05-30T09:17:27.501Z,64.70
2019-05-30T09:19:57.825Z,63.40
2019-05-30T09:22:28.136Z,63.20
2019-05-30T09:24:58.457Z,63.10
2019-05-30T09:27:28.763Z,63.40
2019-05-30T09:29:59.114Z,60.20
2019-05-30T09:32:29.440Z,58.60
2019-05-30T09:34:59.793Z,57.70
2019-05-30T09:37:30.093Z,57.20
2019-05-30T09:40:00.443Z,54.50
2019-05-30T09:42:30.791Z,54.00
2019-05-30T09:45:01.088Z,51.40
2019-05-30T09:47:31.386Z,50.10
2019-05-30T09:50:03.904Z,49.10
2019-05-30T09:52:33.826Z,49.30
2019-05-30T09:55:04.517Z,49.50
2019-05-30T09:57:34.830Z,48.60
2019-05-30T10:00:06.438Z,46.80
2019-05-30T10:02:36.737Z,48.10
2019-05-30T10:05:07.780Z,48.90
2019-05-30T10:07:38.108Z,49.60
2019-05-30T10:10:08.678Z,47.70
2019-05-30T10:12:38.992Z,46.60
2019-05-30T10:15:09.464Z,46.90
2019-05-30T10:17:39.876Z,45.90
2019-05-30T10:20:10.715Z,45.80
2019-05-30T10:22:41.010Z,46.30
2019-05-30T10:25:11.590Z,46.30
2019-05-30T10:27:41.895Z,46.60
2019-05-30T10:30:12.889Z,43.40
2019-05-30T10:32:43.319Z,43.50
2019-05-30T10:35:14.448Z,43.40
2019-05-30T10:37:45.775Z,43.30
2019-05-30T10:40:17.379Z,44.00
2019-05-30T10:42:49.131Z,42.60
2019-05-30T10:45:22.078Z,41.80
2019-05-30T10:47:53.684Z,42.00
2019-05-30T10:50:24.476Z,39.10
2019-05-30T10:52:55.629Z,38.90
2019-05-30T10:55:27.328Z,38.50
2019-05-30T10:57:59.547Z,37.90
2019-05-30T11:00:45.648Z,39.10
2019-05-30T11:03:18.643Z,38.80
2019-05-30T11:05:58.164Z,38.90
2019-05-30T11:08:31.076Z,40.00
2019-05-30T11:11:01.459Z,38.60
2019-05-30T11:13:33.075Z,37.60
2019-05-30T11:16:03.450Z,38.30
2019-05-30T11:18:33.755Z,38.40
2019-05-30T11:21:04.549Z,37.90
2019-05-30T11:23:34.895Z,35.20
2019-05-30T11:26:05.947Z,33.70
2019-05-30T11:28:36.247Z,32.40
2019-05-30T11:31:06.596Z,31.70
2019-05-30T11:33:36.888Z,30.10
2019-05-30T11:36:07.234Z,30.40
2019-05-30T11:38:37.557Z,29.70
2019-05-30T11:41:07.919Z,29.30
2019-05-30T11:43:39.300Z,28.50
2019-05-30T11:46:09.636Z,27.60
2019-05-30T11:48:39.940Z,27.10
2019-05-30T11:51:10.291Z,27.60
2019-05-30T11:53:40.615Z,26.60
2019-05-30T11:56:10.941Z,26.20
2019-05-30T11:58:41.310Z,26.40
2019-05-30T12:01:11.652Z,25.80
2019-05-30T12:03:41.997Z,26.80
2019-05-30T12:06:12.330Z,25.80
2019-05-30T12:08:42.656Z,24.90
2019-05-30T12:11:12.959Z,24.30
2019-05-30T12:13:43.301Z,24.10
2019-05-30T12:16:13.708Z,24.20
2019-05-30T12:18:44.038Z,23.90
2019-05-30T12:21:14.371Z,23.80
2019-05-30T12:23:44.670Z,23.30
2019-05-30T12:26:15.031Z,23.60
2019-05-30T12:28:45.325Z,24.50
2019-05-30T12:31:15.680Z,24.40
2019-05-30T12:33:46.869Z,24.60
2019-05-30T12:36:17.256Z,25.00
2019-05-30T12:38:48.340Z,25.20
2019-05-30T12:41:19.869Z,25.50
2019-05-30T12:43:50.219Z,25.30
2019-05-30T12:46:20.563Z,25.60
2019-05-30T12:48:50.919Z,26.80
2019-05-30T12:51:21.299Z,26.60
2019-05-30T12:53:51.737Z,26.20
2019-05-30T12:56:22.035Z,26.80
2019-05-30T12:58:52.360Z,27.60
2019-05-30T13:01:22.705Z,27.50
2019-05-30T13:03:54.768Z,26.90
2019-05-30T13:06:25.310Z,26.60
2019-05-30T13:08:56.698Z,26.40
2019-05-30T13:11:28.343Z,26.60
2019-05-30T13:13:58.647Z,26.70
2019-05-30T13:16:28.976Z,27.30
2019-05-30T13:19:00.016Z,27.90
2019-05-30T13:21:30.492Z,28.30
2019-05-30T13:24:01.806Z,28.10
2019-05-30T13:26:32.417Z,28.40
2019-05-30T13:29:02.786Z,29.00
2019-05-30T13:31:33.204Z,29.40
2019-05-30T13:34:03.474Z,29.40
2019-05-30T13:36:33.824Z,29.60
2019-05-30T13:39:05.435Z,29.70
2019-05-30T13:41:35.855Z,29.40
2019-05-30T13:44:07.999Z,29.00
2019-05-30T13:46:38.137Z,28.90
2019-05-30T13:49:08.802Z,29.00
2019-05-30T13:51:39.249Z,29.20
2019-05-30T13:54:09.564Z,30.10
2019-05-30T13:56:39.908Z,30.90
2019-05-30T13:59:10.204Z,30.80
2019-05-30T14:01:41.600Z,30.40
2019-05-30T14:04:11.912Z,30.50
2019-05-30T14:06:42.258Z,30.30
2019-05-30T14:09:12.566Z,30.00
2019-05-30T14:11:42.967Z,30.00
2019-05-30T14:14:13.346Z,30.20
2019-05-30T14:16:43.681Z,30.30
2019-05-30T14:19:14.055Z,30.50
2019-05-30T14:21:44.459Z,30.70
2019-05-30T14:24:14.770Z,31.40
2019-05-30T14:26:45.112Z,30.40
2019-05-30T14:29:15.424Z,29.90
2019-05-30T14:31:45.765Z,30.30
2019-05-30T14:34:16.071Z,29.80
2019-05-30T14:36:46.499Z,29.90
2019-05-30T14:39:16.867Z,30.30
2019-05-30T14:41:47.195Z,30.50
2019-05-30T14:44:17.583Z,30.30
2019-05-30T14:46:47.932Z,30.20
2019-05-30T14:49:18.235Z,30.00
2019-05-30T14:51:48.572Z,29.70
2019-05-30T14:54:18.879Z,29.40
2019-05-30T14:56:49.231Z,29.50
2019-05-30T14:59:19.551Z,30.40
2019-05-30T15:01:49.887Z,30.20
2019-05-30T15:04:20.195Z,29.80
2019-05-30T15:06:50.535Z,30.30
2019-05-30T15:09:25.739Z,29.60
2019-05-30T15:11:52.945Z,28.90
2019-05-30T15:14:23.300Z,28.60
2019-05-30T15:16:53.637Z,28.40
2019-05-30T15:19:24.127Z,27.90
2019-05-30T15:21:54.474Z,26.80
2019-05-30T15:24:24.775Z,26.00
2019-05-30T15:26:55.097Z,25.90
2019-05-30T15:29:25.524Z,26.00
2019-05-30T15:31:55.850Z,25.10
2019-05-30T15:34:26.161Z,24.60
2019-05-30T15:36:56.512Z,24.30
2019-05-30T15:39:32.806Z,24.40
2019-05-30T15:41:58.836Z,24.30
2019-05-30T15:44:29.154Z,23.90
2019-05-30T15:46:59.496Z,24.30
2019-05-30T15:49:29.808Z,24.60
2019-05-30T15:52:00.136Z,24.90
2019-05-30T15:54:30.455Z,26.00
2019-05-30T15:57:00.782Z,25.90
2019-05-30T15:59:31.113Z,26.30
2019-05-30T16:02:01.466Z,26.80
2019-05-30T16:04:31.772Z,27.90
2019-05-30T16:07:02.175Z,28.70
2019-05-30T16:09:46.272Z,29.70
2019-05-30T16:12:04.532Z,30.40
2019-05-30T16:14:34.840Z,31.50
2019-05-30T16:17:05.202Z,31.70
2019-05-30T16:19:35.524Z,32.10
2019-05-30T16:22:06.039Z,32.30
2019-05-30T16:24:36.356Z,32.30
2019-05-30T16:27:08.157Z,32.50
2019-05-30T16:29:38.455Z,32.90
2019-05-30T16:32:08.790Z,33.20
2019-05-30T16:34:41.211Z,32.90
2019-05-30T16:37:12.513Z,33.10
2019-05-30T16:39:42.869Z,32.60
2019-05-30T16:42:14.414Z,32.20
2019-05-30T16:44:44.856Z,32.10
2019-05-30T16:47:16.466Z,31.40
2019-05-30T16:49:47.009Z,31.10
2019-05-30T16:52:17.387Z,32.20
2019-05-30T16:54:47.770Z,32.20
2019-05-30T16:57:18.540Z,33.00
2019-05-30T16:59:49.079Z,33.70
2019-05-30T17:02:19.463Z,34.30
2019-05-30T17:04:51.245Z,35.10
2019-05-30T17:07:21.632Z,34.70
2019-05-30T17:09:51.937Z,35.90
2019-05-30T17:12:22.290Z,36.10
2019-05-30T17:14:52.602Z,36.70
2019-05-30T17:17:24.109Z,37.20
2019-05-30T17:19:54.443Z,37.20
2019-05-30T17:22:25.916Z,37.50
2019-05-30T17:24:56.771Z,38.00
2019-05-30T17:27:27.283Z,38.30
2019-05-30T17:29:57.591Z,38.50
2019-05-30T17:32:28.019Z,39.30
2019-05-30T17:34:58.375Z,40.00
2019-05-30T17:37:28.834Z,40.60
2019-05-30T17:39:59.375Z,41.10
2019-05-30T17:42:29.729Z,41.30
2019-05-30T17:45:00.193Z,41.80
2019-05-30T17:47:30.550Z,42.30
2019-05-30T17:50:00.865Z,42.50
2019-05-30T17:52:32.275Z,42.90
2019-05-30T17:55:02.668Z,43.30
2019-05-30T17:57:33.072Z,43.50
2019-05-30T18:00:03.387Z,43.40
2019-05-30T18:02:34.410Z,43.30
2019-05-30T18:05:05.979Z,43.80
2019-05-30T18:07:37.065Z,44.20
2019-05-30T18:10:08.196Z,44.50
2019-05-30T18:12:38.532Z,44.80
2019-05-30T18:15:09.616Z,45.10
2019-05-30T18:17:40.877Z,45.60
2019-05-30T18:20:13.048Z,46.00
2019-05-30T18:22:43.395Z,46.20
2019-05-30T18:25:15.808Z,46.50
2019-05-30T18:27:46.203Z,46.50
2019-05-30T18:30:17.889Z,46.60
2019-05-30T18:32:48.218Z,46.80
2019-05-30T18:35:18.604Z,47.00
2019-05-30T18:37:49.011Z,47.20
2019-05-30T18:40:31.081Z,47.30
2019-05-30T18:43:01.481Z,47.70
2019-05-30T18:45:39.901Z,47.80
2019-05-30T18:48:11.184Z,47.80
2019-05-30T18:50:41.789Z,47.90
2019-05-30T18:53:12.247Z,48.20
2019-05-30T18:55:42.667Z,48.20
2019-05-30T18:58:13.068Z,48.50
2019-05-30T19:00:43.450Z,48.40
2019-05-30T19:03:13.827Z,48.40
2019-05-30T19:05:44.222Z,48.50
2019-05-30T19:08:14.651Z,48.40
2019-05-30T19:10:45.098Z,48.50
2019-05-30T19:13:15.520Z,48.50
2019-05-30T19:15:45.850Z,48.90
2019-05-30T19:18:16.239Z,49.00
2019-05-30T19:20:46.711Z,49.10
2019-05-30T19:23:17.057Z,49.40
2019-05-30T19:25:47.477Z,49.60
2019-05-30T19:28:17.771Z,50.20
2019-05-30T19:30:48.244Z,50.20
2019-05-30T19:33:20.764Z,50.40
2019-05-30T19:35:53.601Z,51.00
2019-05-30T19:38:23.938Z,51.10
2019-05-30T19:40:54.275Z,51.60
2019-05-30T19:43:25.703Z,51.90
2019-05-30T19:45:56.067Z,52.20
2019-05-30T19:48:28.193Z,52.60
2019-05-30T19:50:59.070Z,53.00
2019-05-30T19:53:30.691Z,53.50
2019-05-30T19:56:01.177Z,53.70
2019-05-30T19:58:31.637Z,53.90
2019-05-30T20:01:02.001Z,54.40
2019-05-30T20:03:38.504Z,55.20
2019-05-30T20:06:04.451Z,56.00
2019-05-30T20:08:47.899Z,56.50
2019-05-30T20:11:06.820Z,57.50
2019-05-30T20:13:37.233Z,59.00
2019-05-30T20:16:07.657Z,59.30
2019-05-30T20:18:37.949Z,59.70
2019-05-30T20:21:09.308Z,59.60
2019-05-30T20:23:49.502Z,59.70
2019-05-30T20:26:11.641Z,59.70
2019-05-30T20:28:42.974Z,59.50
2019-05-30T20:31:13.326Z,59.50
2019-05-30T20:33:43.612Z,59.80
2019-05-30T20:36:15.764Z,59.80
2019-05-30T20:38:46.910Z,59.80
2019-05-30T20:41:17.351Z,59.70
2019-05-30T20:43:47.753Z,59.80
2019-05-30T20:46:23.141Z,60.70
2019-05-30T20:48:50.212Z,60.50
2019-05-30T20:51:21.605Z,60.60
2019-05-30T20:53:55.288Z,60.90
2019-05-30T20:56:26.664Z,61.00
2019-05-30T20:58:56.977Z,61.90
2019-05-30T21:01:27.314Z,62.00
2019-05-30T21:03:57.625Z,62.50
2019-05-30T21:06:28.893Z,62.90
2019-05-30T21:09:00.406Z,63.50
2019-05-30T21:11:33.357Z,64.10
2019-05-30T21:14:04.158Z,65.10
2019-05-30T21:16:35.685Z,65.50
2019-05-30T21:19:06.095Z,65.80
2019-05-30T21:21:36.499Z,65.90
2019-05-30T21:24:06.831Z,66.30
2019-05-30T21:26:37.162Z,68.40
2019-05-30T21:29:07.497Z,69.50
2019-05-30T21:31:39.144Z,70.40
2019-05-30T21:34:10.826Z,71.00
2019-05-30T21:36:42.035Z,71.80
2019-05-30T21:39:12.398Z,72.00
2019-05-30T21:41:42.904Z,73.50
2019-05-30T21:44:13.255Z,74.20
2019-05-30T21:46:44.760Z,74.50
2019-05-30T21:49:16.196Z,75.60
2019-05-30T21:51:47.554Z,75.00
2019-05-30T21:54:17.924Z,75.10
2019-05-30T21:56:48.447Z,76.60
2019-05-30T21:59:18.776Z,76.80
2019-05-30T22:01:54.836Z,76.80
2019-05-30T22:04:21.368Z,77.50
2019-05-30T22:06:51.698Z,77.60
2019-05-30T22:09:22.032Z,78.30
2019-05-30T22:11:52.340Z,78.10
2019-05-30T22:14:22.678Z,78.70
2019-05-30T22:16:52.989Z,79.30
2019-05-30T22:19:23.345Z,79.80
2019-05-30T22:21:53.777Z,81.30
2019-05-30T22:24:24.122Z,82.30
2019-05-30T22:26:54.462Z,81.80
2019-05-30T22:29:24.764Z,82.20
2019-05-30T22:31:55.202Z,82.30
2019-05-30T22:34:25.518Z,82.80
2019-05-30T22:36:55.857Z,82.70
2019-05-30T22:39:26.163Z,82.60
2019-05-30T22:41:56.532Z,83.10
2019-05-30T22:44:26.800Z,83.10
2019-05-30T22:46:57.175Z,83.40
2019-05-30T22:49:27.455Z,83.60
2019-05-30T22:51:57.802Z,83.60
2019-05-30T22:54:28.104Z,85.40
2019-05-30T22:57:01.357Z,85.50
2019-05-30T22:59:30.467Z,86.50
2019-05-30T23:02:00.812Z,87.40
2019-05-30T23:04:31.107Z,87.30
2019-05-30T23:07:01.445Z,87.70
2019-05-30T23:09:31.744Z,88.40
2019-05-30T23:12:02.077Z,88.10
2019-05-30T23:14:32.378Z,89.20
2019-05-30T23:17:02.716Z,89.30
2019-05-30T23:19:33.063Z,90.00
2019-05-30T23:22:03.339Z,90.00
2019-05-30T23:24:33.661Z,89.60
2019-05-30T23:27:10.297Z,89.30
2019-05-30T23:29:40.977Z,89.40
2019-05-30T23:32:11.301Z,89.00
2019-05-30T23:34:41.607Z,88.60
2019-05-30T23:37:11.953Z,88.30
2019-05-30T23:39:42.259Z,88.40
2019-05-30T23:42:12.590Z,88.70
2019-05-30T23:44:42.889Z,88.30
2019-05-30T23:47:13.257Z,88.00
2019-05-30T23:49:43.529Z,88.20
2019-05-30T23:52:14.012Z,87.70
2019-05-30T23:54:44.402Z,87.60
2019-05-30T23:57:14.744Z,88.00
2019-05-30T23:59:45.059Z,88.30
